Time;durP1;ratioP1;P1;durP2;ratioP2;P2;SDS_P1;SDS_P2;PMS_P1;PMS_P2;Temp;Humidity;BMP_temperature;BMP_pressure;BME280_temperature;BME280_humidity;BME280_pressure;Samples;Min_cycle;Max_cycle;Signal;HPM_P1;HPM_P2
2022/02/05 00:04:09;;;;;;;208.98;99.47;;;77.40;2227.20;;;;;;5093878;28;20028;-68
2022/02/05 00:06:38;;;;;;;183.48;88.80;;;77.40;2227.20;;;;;;5093526;28;20422;-69
2022/02/05 00:11:56;;;;;;;200.93;95.00;;;77.40;2227.20;;;;;;5093778;28;20483;-68
2022/02/05 00:41:45;;;;;;;151.73;82.03;;;102.70;2227.20;;;;;;5093514;28;20024;-68
2022/02/05 00:44:11;;;;;;;156.07;78.10;;;102.70;2227.20;;;;;;5092867;28;20485;-68
2022/02/05 00:46:40;;;;;;;147.35;73.43;;;102.80;2227.20;;;;;;5092683;28;20099;-69
2022/02/05 00:49:06;;;;;;;178.30;93.97;;;102.90;2227.20;;;;;;5092663;28;20024;-69
2022/02/05 00:51:47;;;;;;;228.68;117.40;;;103.10;2227.20;;;;;;5092621;28;20024;-69
2022/02/05 00:54:16;;;;;;;189.20;103.07;;;103.30;2227.20;;;;;;5092628;28;20532;-70
2022/02/05 00:59:20;;;;;;;170.45;86.05;;;103.30;2227.20;;;;;;5092390;28;20048;-69
2022/02/05 01:01:48;;;;;;;159.18;84.93;;;103.30;2227.20;;;;;;5093065;28;20472;-62
2022/02/05 01:04:14;;;;;;;160.43;82.97;;;128.00;2252.80;;;;;;5092656;28;20024;-70
2022/02/05 01:06:40;;;;;;;157.20;80.15;;;128.00;2252.80;;;;;;5093485;28;20032;-70
2022/02/05 01:09:11;;;;;;;151.82;79.68;;;128.10;2252.80;;;;;;5096173;28;20376;-69
2022/02/05 01:11:38;;;;;;;147.98;73.40;;;128.30;2252.80;;;;;;5096147;28;20539;-70
2022/02/05 01:14:07;;;;;;;166.68;83.25;;;128.40;2252.80;;;;;;5096126;28;20028;-69
2022/02/05 01:16:50;;;;;;;150.07;81.60;;;128.50;2252.80;;;;;;5096158;28;20024;-69
2022/02/05 01:20:01;;;;;;;150.48;80.18;;;128.40;2252.80;;;;;;5095540;28;20467;-69
2022/02/05 01:22:04;;;;;;;141.90;74.20;;;128.30;2252.80;;;;;;5093109;28;20020;-70
2022/02/05 01:24:31;;;;;;;137.07;71.82;;;128.30;2252.80;;;;;;5095937;28;20020;-70
2022/02/05 01:27:31;;;;;;;142.85;74.55;;;128.40;2252.80;;;;;;5095886;28;20012;-69
2022/02/05 01:32:15;;;;;;;139.35;74.60;;;128.40;2252.80;;;;;;5096241;28;20026;-69
2022/02/05 01:34:55;;;;;;;141.10;74.20;;;128.40;2252.80;;;;;;5096293;28;20486;-69
2022/02/05 01:56:48;;;;;;;149.48;79.53;;;128.00;2252.80;;;;;;5076006;28;20028;-69
2022/02/05 01:59:23;;;;;;;145.18;73.22;;;128.10;2252.80;;;;;;5094147;28;20077;-69
2022/02/05 02:04:50;;;;;;;128.90;72.55;;;128.10;2252.80;;;;;;5095958;28;20039;-69
2022/02/05 02:10:36;;;;;;;135.45;69.97;;;128.10;2252.80;;;;;;5095500;28;20073;-69
2022/02/05 02:16:24;;;;;;;141.80;74.35;;;128.10;2252.80;;;;;;5095991;28;20165;-69
2022/02/05 02:22:03;;;;;;;147.77;74.97;;;128.40;2252.80;;;;;;5053416;28;20028;-69
2022/02/05 02:24:42;;;;;;;155.32;80.85;;;128.40;2252.80;;;;;;5052901;28;20465;-69
2022/02/05 02:27:31;;;;;;;152.70;80.70;;;128.50;2252.80;;;;;;5078974;28;20060;-69
2022/02/05 02:30:12;;;;;;;155.52;79.30;;;128.50;2252.80;;;;;;5095244;28;20028;-69
2022/02/05 02:32:41;;;;;;;159.13;81.18;;;128.40;2252.80;;;;;;5095237;28;20471;-62
2022/02/05 02:35:14;;;;;;;151.82;78.18;;;128.40;2252.80;;;;;;5095076;28;20020;-72
2022/02/05 02:38:07;;;;;;;146.07;75.45;;;128.50;2252.80;;;;;;5095384;28;20028;-73
2022/02/05 02:40:56;;;;;;;142.00;79.18;;;128.70;2252.80;;;;;;5094439;28;20054;-69
2022/02/05 02:43:23;;;;;;;176.38;96.18;;;128.70;2252.80;;;;;;5094810;28;20027;-68
2022/02/05 02:45:49;;;;;;;174.00;90.72;;;128.90;2252.80;;;;;;5095074;28;20023;-75
2022/02/05 02:48:15;;;;;;;152.07;77.55;;;153.60;2252.80;;;;;;5094726;28;20146;-69
2022/02/05 02:58:52;;;;;;;103.00;55.53;;;153.70;2252.80;;;;;;5094491;28;20570;-73
2022/02/05 03:01:20;;;;;;;102.35;51.90;;;153.80;2252.80;;;;;;5094513;28;20027;-69
2022/02/05 03:03:46;;;;;;;96.45;52.75;;;153.80;2252.80;;;;;;5094505;28;20077;-69
2022/02/05 03:06:13;;;;;;;77.43;47.85;;;153.90;2252.80;;;;;;5094743;28;20034;-68
2022/02/05 03:08:39;;;;;;;88.07;50.45;;;153.90;2252.80;;;;;;5094393;28;20020;-72
2022/02/05 03:11:05;;;;;;;78.13;43.13;;;153.90;2252.80;;;;;;5094353;28;20028;-70
2022/02/05 03:13:31;;;;;;;88.50;47.13;;;154.00;2252.80;;;;;;5093035;28;20039;-69
2022/02/05 03:15:57;;;;;;;85.53;47.13;;;153.90;2252.80;;;;;;5094238;28;20016;-69
2022/02/05 03:18:33;;;;;;;92.05;48.60;;;154.00;2252.80;;;;;;5094222;28;20055;-69
2022/02/05 03:20:59;;;;;;;79.68;46.65;;;154.00;2252.80;;;;;;5094402;28;20031;-73
2022/02/05 03:23:25;;;;;;;76.80;43.05;;;154.00;2252.80;;;;;;5092839;28;20024;-68
2022/02/05 03:25:51;;;;;;;74.63;42.10;;;154.00;2252.80;;;;;;5094118;28;20577;-70
2022/02/05 03:28:17;;;;;;;69.50;40.88;;;154.10;2252.80;;;;;;5094396;28;20098;-68
2022/02/05 03:30:44;;;;;;;67.95;40.17;;;154.10;2252.80;;;;;;5093764;28;20509;-69
2022/02/05 03:33:09;;;;;;;70.65;40.17;;;154.10;2252.80;;;;;;5093898;28;20026;-69
2022/02/05 03:35:36;;;;;;;66.28;38.60;;;154.20;2252.80;;;;;;5094043;28;20027;-68
2022/02/05 03:38:02;;;;;;;68.45;39.97;;;154.20;2252.80;;;;;;5093900;28;20012;-68
2022/02/05 03:40:28;;;;;;;75.93;43.35;;;154.20;2252.80;;;;;;5093820;28;20034;-69
2022/02/05 03:42:54;;;;;;;74.95;41.67;;;154.20;2252.80;;;;;;5093843;28;20099;-69
2022/02/05 03:45:20;;;;;;;66.88;39.05;;;154.30;2252.80;;;;;;5092591;28;20024;-69
2022/02/05 03:47:47;;;;;;;75.53;41.20;;;154.30;2252.80;;;;;;5092438;28;20506;-69
2022/02/05 03:50:13;;;;;;;61.97;38.80;;;154.30;2252.80;;;;;;5093958;28;20016;-69
2022/02/05 03:52:39;;;;;;;66.20;38.03;;;154.30;2252.80;;;;;;5093813;28;20035;-69
2022/02/05 03:55:07;;;;;;;60.47;36.33;;;154.30;2252.80;;;;;;5093689;28;20174;-69
2022/02/05 03:57:33;;;;;;;62.67;37.25;;;154.30;2252.80;;;;;;5093712;28;20024;-69
2022/02/05 04:00:02;;;;;;;59.50;35.33;;;154.30;2252.80;;;;;;5093430;28;20131;-68
2022/02/05 04:02:28;;;;;;;57.47;34.33;;;154.30;2252.80;;;;;;5093615;28;20035;-74
2022/02/05 04:04:54;;;;;;;62.70;36.80;;;154.30;2252.80;;;;;;5093560;28;20476;-69
2022/02/05 04:07:20;;;;;;;58.95;35.85;;;154.30;2252.80;;;;;;5093508;28;20021;-72
2022/02/05 04:09:47;;;;;;;59.38;34.95;;;154.30;2252.80;;;;;;5093525;28;20478;-73
2022/02/05 04:17:23;;;;;;;56.90;33.55;;;154.30;2252.80;;;;;;5093740;28;20035;-73
2022/02/05 04:19:49;;;;;;;66.97;36.25;;;154.30;2252.80;;;;;;5093579;28;20036;-68
2022/02/05 04:22:15;;;;;;;59.00;34.50;;;154.40;2252.80;;;;;;5093414;28;20023;-71
2022/02/05 04:24:41;;;;;;;66.95;38.20;;;154.40;2252.80;;;;;;5093718;28;20065;-68
2022/02/05 04:27:07;;;;;;;62.63;38.15;;;154.40;2252.80;;;;;;5093313;28;20028;-69
2022/02/05 04:29:33;;;;;;;67.25;39.58;;;154.30;2252.80;;;;;;5093296;28;20020;-72
2022/02/05 04:31:59;;;;;;;69.43;40.92;;;154.30;2252.80;;;;;;5093348;28;20472;-68
2022/02/05 04:34:24;;;;;;;65.93;39.08;;;154.20;2252.80;;;;;;5092869;28;20020;-68
2022/02/05 04:36:50;;;;;;;74.68;41.35;;;154.20;2252.80;;;;;;5093306;28;20024;-68
2022/02/05 04:39:19;;;;;;;72.50;42.08;;;154.20;2252.80;;;;;;5093127;28;20032;-70
2022/02/05 04:41:52;;;;;;;64.03;37.15;;;154.20;2252.80;;;;;;5094421;28;20388;-73
2022/02/05 04:55:15;;;;;;;66.60;40.28;;;153.60;2252.80;;;;;;5092187;28;20410;-69
2022/02/05 05:00:43;;;;;;;68.28;41.20;;;128.70;2252.80;;;;;;5096613;28;20143;-68
2022/02/05 05:03:23;;;;;;;79.93;43.47;;;128.60;2252.80;;;;;;5096857;28;20031;-68
2022/02/05 05:06:10;;;;;;;79.97;44.58;;;128.60;2252.80;;;;;;5097041;28;20422;-68
2022/02/05 05:09:04;;;;;;;83.03;45.58;;;128.60;2252.80;;;;;;5096592;28;20420;-68
2022/02/05 05:21:58;;;;;;;76.65;44.60;;;128.10;2252.80;;;;;;5096713;28;20094;-72
2022/02/05 05:24:24;;;;;;;73.60;44.15;;;128.10;2252.80;;;;;;5096348;28;20073;-68
2022/02/05 05:26:50;;;;;;;66.35;42.28;;;128.00;2252.80;;;;;;5096321;28;20028;-69
2022/02/05 05:29:16;;;;;;;81.82;45.60;;;128.00;2252.80;;;;;;5096620;28;20032;-72
2022/02/05 05:31:42;;;;;;;78.85;45.97;;;103.30;2227.20;;;;;;5096600;28;20024;-68
2022/02/05 05:34:08;;;;;;;81.00;44.88;;;103.30;2227.20;;;;;;5096342;28;20027;-69
2022/02/05 05:36:34;;;;;;;83.95;47.25;;;128.00;2252.80;;;;;;5096328;28;20020;-73
2022/02/05 05:39:02;;;;;;;79.57;48.65;;;128.00;2252.80;;;;;;5094803;28;20043;-64
2022/02/05 05:41:30;;;;;;;84.57;46.97;;;128.10;2252.80;;;;;;5096070;28;20030;-68
2022/02/05 05:46:41;;;;;;;76.82;44.95;;;103.30;2227.20;;;;;;5095996;28;20070;-69
2022/02/05 05:49:14;;;;;;;78.60;47.60;;;128.00;2252.80;;;;;;5096253;28;20062;-68
2022/02/05 05:51:40;;;;;;;84.30;47.53;;;128.00;2252.80;;;;;;5096322;28;20024;-68
2022/02/05 05:54:06;;;;;;;82.55;45.95;;;128.20;2252.80;;;;;;5095423;28;20059;-68
2022/02/05 05:56:33;;;;;;;79.60;46.03;;;128.30;2252.80;;;;;;5095853;28;20059;-68
2022/02/05 05:59:01;;;;;;;81.65;47.60;;;128.30;2252.80;;;;;;5095848;28;20047;-68
2022/02/05 06:01:27;;;;;;;81.50;47.95;;;128.50;2252.80;;;;;;5095631;28;20503;-68
2022/02/05 06:03:53;;;;;;;84.05;49.28;;;128.60;2252.80;;;;;;5095661;28;20465;-68
2022/02/05 06:06:19;;;;;;;92.35;53.55;;;128.70;2252.80;;;;;;5095622;28;20024;-68
2022/02/05 06:08:45;;;;;;;95.75;55.00;;;128.70;2252.80;;;;;;5095552;28;20070;-67
2022/02/05 06:11:11;;;;;;;95.35;55.28;;;128.70;2252.80;;;;;;5095467;28;20490;-68
2022/02/05 06:13:36;;;;;;;97.18;52.75;;;128.80;2252.80;;;;;;5095415;28;20031;-68
2022/02/05 06:16:07;;;;;;;103.60;56.85;;;128.70;2252.80;;;;;;5095718;28;20456;-68
2022/02/05 06:18:33;;;;;;;150.80;72.22;;;128.70;2252.80;;;;;;5095412;28;20031;-68
2022/02/05 06:20:59;;;;;;;133.88;68.97;;;128.70;2252.80;;;;;;5095239;28;20472;-68
2022/02/05 06:23:25;;;;;;;110.53;65.05;;;128.70;2252.80;;;;;;5095298;28;20081;-68
2022/02/05 06:25:51;;;;;;;107.53;59.33;;;128.70;2252.80;;;;;;5095066;28;20099;-67
2022/02/05 06:28:18;;;;;;;96.63;55.70;;;128.70;2252.80;;;;;;5095099;28;20031;-69
2022/02/05 06:30:44;;;;;;;98.55;57.25;;;128.60;2252.80;;;;;;5094854;28;20020;-68
2022/02/05 06:33:11;;;;;;;93.43;54.33;;;128.60;2252.80;;;;;;5095080;28;20032;-68
2022/02/05 06:35:37;;;;;;;94.35;56.13;;;128.50;2252.80;;;;;;5095026;28;20098;-68
2022/02/05 06:38:03;;;;;;;102.97;56.88;;;128.50;2252.80;;;;;;5095045;28;20020;-68
2022/02/05 06:40:29;;;;;;;89.45;54.35;;;128.30;2252.80;;;;;;5094905;28;20036;-68
2022/02/05 06:42:54;;;;;;;90.35;51.10;;;128.40;2252.80;;;;;;5095129;28;20074;-68
2022/02/05 06:45:20;;;;;;;77.68;46.17;;;128.60;2252.80;;;;;;5094929;28;20043;-68
2022/02/05 06:47:47;;;;;;;71.18;45.35;;;128.80;2252.80;;;;;;5094821;28;20062;-68
2022/02/05 06:50:13;;;;;;;82.50;46.35;;;128.90;2252.80;;;;;;5094773;28;20028;-68
2022/02/05 06:52:41;;;;;;;76.03;48.33;;;153.60;2252.80;;;;;;5094696;28;20024;-68
2022/02/05 06:55:07;;;;;;;82.82;50.83;;;153.60;2252.80;;;;;;5095232;28;20097;-68
2022/02/05 06:57:34;;;;;;;88.82;52.10;;;153.70;2252.80;;;;;;5093370;28;20357;-68
2022/02/05 06:59:59;;;;;;;85.32;52.40;;;153.90;2252.80;;;;;;5094258;28;20056;-68
2022/02/05 07:02:25;;;;;;;82.00;51.42;;;154.00;2252.80;;;;;;5094543;28;20028;-68
2022/02/05 07:04:51;;;;;;;88.90;51.58;;;154.30;2252.80;;;;;;5093839;28;20085;-68
2022/02/05 07:07:17;;;;;;;83.38;49.38;;;154.40;2252.80;;;;;;5094402;28;20032;-68
2022/02/05 07:09:43;;;;;;;78.95;47.88;;;154.50;2252.80;;;;;;5094690;28;20476;-68
2022/02/05 07:12:11;;;;;;;82.90;49.58;;;154.50;2252.80;;;;;;5093038;28;20043;-68
2022/02/05 07:14:47;;;;;;;86.80;51.83;;;179.20;2252.80;;;;;;5094259;28;20157;-69
2022/02/05 07:17:21;;;;;;;84.70;51.42;;;179.40;2252.80;;;;;;5094592;28;20444;-68
2022/02/05 07:22:24;;;;;;;116.40;69.32;;;179.80;2252.80;;;;;;5094481;28;20028;-68
2022/02/05 07:30:03;;;;;;;96.00;59.47;;;179.70;2252.80;;;;;;5094061;28;20392;-68
2022/02/05 07:32:29;;;;;;;101.45;61.35;;;179.70;2252.80;;;;;;5093431;28;20405;-71
2022/02/05 07:34:55;;;;;;;93.75;55.95;;;179.90;2252.80;;;;;;5093484;28;20020;-70
2022/02/05 07:37:21;;;;;;;83.40;52.38;;;180.00;2252.80;;;;;;5093334;28;20021;-70
2022/02/05 07:39:48;;;;;;;76.90;48.08;;;204.80;2252.80;;;;;;5093396;28;20089;-69
2022/02/05 07:42:15;;;;;;;71.85;43.88;;;204.80;2252.80;;;;;;5093402;28;20012;-68
2022/02/05 07:44:41;;;;;;;68.85;43.10;;;204.80;2252.80;;;;;;5093784;28;20048;-68
2022/02/05 07:47:08;;;;;;;70.50;41.58;;;180.10;2252.80;;;;;;5093815;28;20054;-68
2022/02/05 07:49:43;;;;;;;74.88;44.65;;;180.10;2252.80;;;;;;5093748;28;20059;-71
2022/02/05 07:52:10;;;;;;;65.53;43.95;;;204.80;2252.80;;;;;;5093123;28;20020;-71
2022/02/05 07:54:37;;;;;;;62.20;41.38;;;204.90;2252.80;;;;;;5093197;28;20233;-68
2022/02/05 07:57:03;;;;;;;69.30;42.85;;;205.00;2252.80;;;;;;5090409;28;20349;-68
2022/02/05 07:59:29;;;;;;;65.18;42.78;;;205.10;2252.80;;;;;;5092885;28;20130;-67
2022/02/05 08:01:55;;;;;;;130.10;73.35;;;205.20;2252.80;;;;;;5091799;28;20539;-69
2022/02/05 08:04:21;;;;;;;103.38;63.47;;;205.20;2252.80;;;;;;5092286;28;20027;-69
2022/02/05 08:06:48;;;;;;;80.28;54.05;;;205.40;2252.80;;;;;;5093057;28;20426;-68
2022/02/05 08:09:24;;;;;;;95.07;63.08;;;205.50;2252.80;;;;;;5092315;28;20020;-69
2022/02/05 08:11:55;;;;;;;68.15;43.45;;;205.50;2252.80;;;;;;5092166;28;20027;-70
2022/02/05 08:14:22;;;;;;;59.80;38.70;;;205.50;2252.80;;;;;;5090879;28;20377;-69
2022/02/05 08:17:02;;;;;;;67.80;42.65;;;205.60;2252.80;;;;;;5095253;28;20023;-69
2022/02/05 08:19:28;;;;;;;80.82;48.90;;;205.50;2252.80;;;;;;5095646;28;20020;-70
2022/02/05 08:21:54;;;;;;;99.60;59.30;;;205.50;2252.80;;;;;;5096131;28;20023;-69
2022/02/05 08:24:20;;;;;;;94.05;62.90;;;205.50;2252.80;;;;;;5096058;28;20039;-70
2022/02/05 08:26:45;;;;;;;98.85;58.88;;;205.50;2252.80;;;;;;5096881;28;20027;-70
2022/02/05 08:29:13;;;;;;;85.43;51.50;;;205.60;2252.80;;;;;;5096997;28;20090;-70
2022/02/05 08:31:39;;;;;;;78.28;46.10;;;205.60;2252.80;;;;;;5096400;28;20024;-69
2022/02/05 08:34:06;;;;;;;146.93;75.60;;;230.40;2252.80;;;;;;5096529;28;20024;-66
2022/02/05 08:36:50;;;;;;;150.05;74.55;;;230.60;2252.80;;;;;;5096442;28;20426;-69
2022/02/05 08:39:17;;;;;;;;;;;230.70;2252.80;;;;;;5095642;28;20032;-69
2022/02/05 08:41:44;;;;;;;75.40;48.00;;;231.00;2252.80;;;;;;5096132;28;19911;-68
2022/02/05 08:44:10;;;;;;;85.28;50.22;;;231.00;2252.80;;;;;;5096024;28;20406;-69
2022/02/05 08:46:37;;;;;;;69.90;42.72;;;231.10;2252.80;;;;;;5096337;28;20020;-69
2022/02/05 08:49:04;;;;;;;76.05;44.03;;;231.20;2252.80;;;;;;5096140;28;20442;-68
2022/02/05 08:51:31;;;;;;;75.03;40.78;;;231.10;2252.80;;;;;;5094619;28;20500;-68
2022/02/05 08:53:58;;;;;;;67.70;39.53;;;231.10;2252.80;;;;;;5096111;28;20536;-69
2022/02/05 08:56:25;;;;;;;99.55;60.83;;;231.20;2252.80;;;;;;5095966;28;20480;-68
2022/02/05 08:58:56;;;;;;;74.20;47.30;;;231.20;2252.80;;;;;;5096157;28;20036;-68
2022/02/05 09:01:31;;;;;;;59.65;38.17;;;256.10;2252.80;;;;;;5095620;28;20040;-68
2022/02/05 09:04:03;;;;;;;63.85;38.15;;;256.30;2252.80;;;;;;5094595;28;20020;-68
2022/02/05 09:06:33;;;;;;;61.60;37.00;;;256.60;2252.80;;;;;;5094919;28;20031;-67
2022/02/05 09:09:08;;;;;;;74.63;45.45;;;256.70;2252.80;;;;;;5095620;28;20024;-68
2022/02/05 09:11:51;;;;;;;72.07;45.35;;;256.80;2252.80;;;;;;5095637;28;20349;-69
2022/02/05 09:16:52;;;;;;;65.40;38.60;;;;;;;;;;5093996;28;20471;-69
2022/02/05 09:19:18;;;;;;;52.55;31.67;;;281.80;2278.40;;;;;;5095703;28;20043;-65
2022/02/05 09:21:44;;;;;;;54.15;33.28;;;282.10;2278.40;;;;;;5096139;28;20020;-68
2022/02/05 09:24:10;;;;;;;44.80;29.05;;;282.30;2278.40;;;;;;5095933;28;20099;-65
2022/02/05 09:26:44;;;;;;;73.85;41.80;;;282.30;2278.40;;;;;;5095507;28;20042;-68
2022/02/05 09:29:19;;;;;;;72.72;35.78;;;282.30;2278.40;;;;;;5094871;28;20117;-68
2022/02/05 09:31:46;;;;;;;69.82;37.45;;;282.40;2278.40;;;;;;5093606;28;20020;-68
2022/02/05 09:34:12;;;;;;;90.18;47.65;;;282.40;2278.40;;;;;;5095204;28;20016;-70
2022/02/05 09:36:39;;;;;;;44.20;26.48;;;282.00;2278.40;;;;;;5095778;28;20024;-67
2022/02/05 09:39:10;;;;;;;53.78;31.75;;;282.00;2278.40;;;;;;5095776;28;20077;-69
2022/02/05 09:41:37;;;;;;;66.45;35.28;;;282.00;2278.40;;;;;;5095462;28;20027;-68
2022/02/05 09:44:04;;;;;;;85.40;37.15;;;281.90;2278.40;;;;;;5095326;28;20028;-68
2022/02/05 09:46:30;;;;;;;60.05;28.08;;;282.10;2278.40;;;;;;5095038;28;20393;-69
2022/02/05 09:48:57;;;;;;;63.65;28.55;;;282.30;2278.40;;;;;;5094942;28;20472;-68
2022/02/05 09:51:32;;;;;;;152.98;60.33;;;307.20;2304.00;;;;;;5092381;28;20017;-69
2022/02/05 09:54:00;;;;;;;54.15;30.70;;;307.50;2304.00;;;;;;5094900;28;20472;-70
2022/02/05 09:56:28;;;;;;;55.80;31.95;;;307.50;2304.00;;;;;;5095003;28;20034;-70
2022/02/05 09:58:54;;;;;;;51.17;32.47;;;307.70;2304.00;;;;;;5095149;28;20098;-70
2022/02/05 10:01:28;;;;;;;56.25;35.45;;;307.70;2304.00;;;;;;5095143;28;20054;-67
2022/02/05 10:03:55;;;;;;;64.63;34.55;;;307.80;2304.00;;;;;;5095186;28;20028;-69
2022/02/05 10:06:27;;;;;;;37.00;24.33;;;307.90;2304.00;;;;;;5094871;28;20549;-69
2022/02/05 10:09:05;;;;;;;43.00;24.38;;;332.80;2252.80;;;;;;5095428;28;20376;-69
2022/02/05 10:11:56;;;;;;;57.03;29.50;;;333.00;2227.20;;;;;;5093899;28;20119;-67
2022/02/05 10:14:26;;;;;;;49.10;27.83;;;333.20;2201.60;;;;;;5094907;28;20024;-67
2022/02/05 10:16:57;;;;;;;48.53;25.90;;;333.60;2150.40;;;;;;5093556;28;20024;-65
2022/02/05 10:19:47;;;;;;;28.92;19.55;;;333.50;2124.80;;;;;;5094796;28;20537;-68
2022/02/05 10:22:12;;;;;;;39.90;24.13;;;333.50;2073.60;;;;;;5094967;28;20020;-67
2022/02/05 10:24:49;;;;;;;42.22;25.58;;;358.40;2048.00;;;;;;5094932;28;20086;-67
2022/02/05 10:27:28;;;;;;;42.55;27.55;;;358.50;2048.00;;;;;;5094965;28;20514;-64
2022/02/05 10:30:26;;;;;;;40.10;25.17;;;358.90;1945.60;;;;;;5094806;28;20059;-71
2022/02/05 10:32:58;;;;;;;84.10;48.03;;;359.30;1894.40;;;;;;5079213;28;20028;-69
2022/02/05 10:35:38;;;;;;;41.88;24.42;;;384.20;1843.20;;;;;;5095128;28;20020;-67
2022/02/05 10:40:48;;;;;;;63.58;32.22;;;384.80;1715.20;;;;;;5093412;28;20031;-69
2022/02/05 10:43:30;;;;;;;42.53;27.42;;;409.80;1689.60;;;;;;5094616;28;20020;-66
2022/02/05 10:45:56;;;;;;;17.33;10.73;;;435.20;1612.80;;;;;;5095193;28;20035;-70
2022/02/05 10:48:24;;;;;;;11.95;8.35;;;461.20;1484.80;;;;;;5094915;28;20020;-65
2022/02/05 10:50:54;;;;;;;13.80;9.35;;;436.00;1433.60;;;;;;5095368;28;20032;-66
2022/02/05 10:53:34;;;;;;;10.65;7.93;;;435.70;1459.20;;;;;;5095042;28;20028;-68
2022/02/05 10:56:11;;;;;;;27.05;14.65;;;435.90;1408.00;;;;;;5093779;28;20028;-68
2022/02/05 11:07:03;;;;;;;19.75;7.00;;;410.00;1510.40;;;;;;5091154;28;20104;-68
2022/02/05 11:09:29;;;;;;;10.52;5.88;;;409.90;1536.00;;;;;;5092928;28;20614;-69
2022/02/05 11:18:00;;;;;;;10.20;5.80;;;359.20;1612.80;;;;;;5091575;28;20103;-67
2022/02/05 11:20:18;;;;;;;15.85;8.77;;;359.30;1638.40;;;;;;5090205;28;20118;-65
2022/02/05 11:22:45;;;;;;;17.73;10.15;;;384.40;1638.40;;;;;;5092751;28;20016;-66
2022/02/05 11:25:13;;;;;;;26.38;14.70;;;384.30;1612.80;;;;;;5090118;28;20024;-65
2022/02/05 11:27:42;;;;;;;15.15;9.05;;;409.60;1612.80;;;;;;5092517;28;20483;-65
2022/02/05 11:30:26;;;;;;;11.60;7.25;;;435.80;1484.80;;;;;;5092347;28;20028;-66
2022/02/05 11:32:53;;;;;;;10.43;4.90;;;435.70;1484.80;;;;;;5089991;28;20055;-66
2022/02/05 11:35:40;;;;;;;10.65;3.72;;;461.30;1331.20;;;;;;5091166;28;20027;-65
2022/02/05 11:38:06;;;;;;;13.15;5.25;;;435.70;1331.20;;;;;;5092275;28;20341;-66
2022/02/05 11:40:52;;;;;;;6.72;3.83;;;435.30;1408.00;;;;;;5093523;28;20043;-65
2022/02/05 11:43:19;;;;;;;13.15;7.35;;;435.90;1305.60;;;;;;5093848;28;20069;-65
2022/02/05 11:45:45;;;;;;;11.23;5.00;;;410.30;1356.80;;;;;;5092573;28;20032;-65
2022/02/05 11:48:42;;;;;;;34.63;14.82;;;384.60;1382.40;;;;;;5092351;28;20499;-66
2022/02/05 11:51:30;;;;;;;13.88;4.50;;;384.10;1408.00;;;;;;5093439;28;20089;-66
2022/02/05 11:53:59;;;;;;;17.00;7.50;;;359.30;1433.60;;;;;;5093759;28;20071;-68
2022/02/05 11:59:19;;;;;;;10.77;5.35;;;358.80;1484.80;;;;;;5093297;28;20047;-65
2022/02/05 12:01:46;;;;;;;6.88;3.92;;;358.50;1536.00;;;;;;5092710;28;20109;-65
2022/02/05 12:04:20;;;;;;;11.05;4.15;;;333.60;1536.00;;;;;;5093179;28;20411;-64
2022/02/05 12:06:51;;;;;;;66.25;21.02;;;333.30;1484.80;;;;;;5091257;28;20058;-64
2022/02/05 12:09:32;;;;;;;41.22;16.08;;;333.20;1715.20;;;;;;5093687;28;20020;-64
2022/02/05 12:12:24;;;;;;;35.55;12.52;;;333.20;1561.60;;;;;;5093138;28;20032;-66
2022/02/05 12:15:11;;;;;;;59.05;21.70;;;333.00;1561.60;;;;;;5091618;28;20023;-65
2022/02/05 12:23:43;;;;;;;7.70;3.50;;;308.10;1459.20;;;;;;5092588;28;20035;-69
2022/02/05 12:26:25;;;;;;;19.60;8.15;;;333.10;1459.20;;;;;;5073700;28;20029;-64
2022/02/05 12:28:55;;;;;;;52.38;21.83;;;333.30;1433.60;;;;;;5073656;28;20524;-69
2022/02/05 12:31:21;;;;;;;20.70;11.30;;;333.50;1459.20;;;;;;5082136;28;20012;-67
2022/02/05 12:33:56;;;;;;;21.35;10.63;;;333.50;1459.20;;;;;;5092786;28;20545;-66
2022/02/05 12:36:43;;;;;;;170.95;53.70;;;333.40;1459.20;;;;;;5093029;28;20099;-69
2022/02/05 12:39:10;;;;;;;18.95;8.43;;;333.20;1459.20;;;;;;5091834;28;20024;-68
2022/02/05 12:41:38;;;;;;;15.63;9.38;;;333.20;1459.20;;;;;;5091815;28;20036;-68
2022/02/05 12:44:06;;;;;;;12.35;7.35;;;333.40;1484.80;;;;;;5090045;28;20024;-68
2022/02/05 12:46:43;;;;;;;19.60;8.43;;;333.30;1459.20;;;;;;5092468;28;20044;-66
2022/02/05 12:49:22;;;;;;;33.63;15.40;;;333.20;1459.20;;;;;;5092177;28;20026;-68
2022/02/05 12:51:49;;;;;;;12.60;7.10;;;332.90;1484.80;;;;;;5092686;28;20028;-65
2022/02/05 12:54:22;;;;;;;18.52;5.75;;;308.10;1459.20;;;;;;5092447;28;20028;-68
2022/02/05 12:56:49;;;;;;;9.75;4.28;;;307.90;1484.80;;;;;;5092934;28;20491;-64
2022/02/05 12:59:25;;;;;;;8.02;4.45;;;307.60;1536.00;;;;;;5092601;28;20496;-65
2022/02/05 13:02:11;;;;;;;10.48;5.03;;;307.50;1536.00;;;;;;5092244;28;20089;-65
2022/02/05 13:04:42;;;;;;;4.20;2.97;;;307.20;1536.00;;;;;;5096917;28;20435;-66
2022/02/05 13:07:14;;;;;;;6.88;3.83;;;282.20;1536.00;;;;;;5096767;28;20471;-64
2022/02/05 13:10:05;;;;;;;10.20;3.85;;;282.20;1587.20;;;;;;5096385;28;20028;-64
2022/02/05 13:12:35;;;;;;;8.77;5.15;;;282.20;1561.60;;;;;;5096603;28;20020;-67
2022/02/05 13:15:08;;;;;;;7.97;4.55;;;282.30;1587.20;;;;;;5096632;28;20468;-67
2022/02/05 13:36:23;;;;;;;11.23;6.00;;;282.10;1612.80;;;;;;5096425;28;20027;-67
2022/02/05 13:42:18;;;;;;;17.27;6.97;;;282.20;1612.80;;;;;;5095873;28;20043;-67
2022/02/05 13:45:10;;;;;;;12.90;7.05;;;282.10;1638.40;;;;;;5095020;28;20115;-65
2022/02/05 13:47:43;;;;;;;13.55;6.25;;;282.00;1664.00;;;;;;5094978;28;20099;-64
2022/02/05 13:50:09;;;;;;;18.40;8.68;;;281.90;1689.60;;;;;;5095373;28;20028;-67
2022/02/05 13:52:50;;;;;;;21.23;8.60;;;281.90;1689.60;;;;;;5095274;28;20024;-68
2022/02/05 13:55:29;;;;;;;9.93;5.43;;;281.90;1689.60;;;;;;5093871;28;20080;-67
2022/02/05 13:57:56;;;;;;;15.80;6.97;;;281.70;1689.60;;;;;;5093795;28;20035;-67
2022/02/05 14:00:23;;;;;;;14.35;6.53;;;281.70;1715.20;;;;;;5095215;28;20044;-67
2022/02/05 14:02:59;;;;;;;13.13;6.10;;;256.90;1715.20;;;;;;5095658;28;20031;-63
2022/02/05 14:05:26;;;;;;;16.60;6.13;;;256.90;1689.60;;;;;;5095890;28;20443;-67
2022/02/05 14:07:52;;;;;;;13.43;6.13;;;256.90;1689.60;;;;;;5094953;28;20025;-65
2022/02/05 14:10:20;;;;;;;15.23;7.13;;;256.80;1740.80;;;;;;5096969;28;20044;-70
2022/02/05 14:12:48;;;;;;;20.85;7.03;;;256.60;1715.20;;;;;;5095583;28;20047;-69
2022/02/05 14:15:15;;;;;;;22.25;9.05;;;256.40;1740.80;;;;;;5097444;28;20039;-69
2022/02/05 14:17:41;;;;;;;18.08;8.40;;;256.30;1715.20;;;;;;5112080;28;20074;-63
2022/02/05 14:20:08;;;;;;;15.82;7.95;;;256.30;1715.20;;;;;;5097472;28;20040;-65
2022/02/05 14:22:37;;;;;;;17.55;7.68;;;256.20;1740.80;;;;;;5096495;28;20080;-65
2022/02/05 14:25:28;;;;;;;28.73;12.88;;;256.20;1715.20;;;;;;5094898;28;20020;-62
2022/02/05 14:28:16;;;;;;;29.48;12.95;;;256.20;1740.80;;;;;;5094856;28;20032;-63
2022/02/05 14:30:55;;;;;;;16.00;7.60;;;256.30;1715.20;;;;;;5095795;28;20027;-67
2022/02/05 14:33:24;;;;;;;17.77;8.70;;;256.20;1715.20;;;;;;5097427;28;20036;-68
2022/02/05 14:41:08;;;;;;;27.92;10.13;;;256.20;1715.20;;;;;;5095509;28;20491;-63
2022/02/05 14:43:34;;;;;;;31.23;12.27;;;256.10;1715.20;;;;;;5098662;28;20024;-68
2022/02/05 14:46:00;;;;;;;50.38;21.38;;;256.00;1740.80;;;;;;5096265;28;20020;-68
2022/02/05 14:48:26;;;;;;;21.23;9.15;;;256.00;1715.20;;;;;;5096119;28;20035;-69
2022/02/05 14:50:53;;;;;;;29.45;10.68;;;256.00;1715.20;;;;;;5098324;28;20032;-69
2022/02/05 14:53:19;;;;;;;44.25;14.68;;;231.30;1715.20;;;;;;5095441;28;20025;-68
2022/02/05 14:55:45;;;;;;;20.92;6.30;;;231.20;1715.20;;;;;;5096438;28;20016;-69
2022/02/05 14:58:11;;;;;;;19.95;8.05;;;231.10;1740.80;;;;;;5093193;28;20020;-68
2022/02/05 15:00:37;;;;;;;45.50;16.77;;;231.00;1740.80;;;;;;5093895;28;20054;-64
2022/02/05 15:03:04;;;;;;;33.10;12.68;;;231.00;1740.80;;;;;;5094332;28;20376;-68
2022/02/05 15:05:31;;;;;;;20.45;8.07;;;230.90;1740.80;;;;;;5093880;28;20024;-68
2022/02/05 15:07:57;;;;;;;15.95;6.90;;;230.90;1766.40;;;;;;5093769;28;20020;-67
2022/02/05 15:10:23;;;;;;;27.30;13.00;;;230.80;1766.40;;;;;;5094384;28;20028;-64